sensor_id;sensor_type;location;lat;lon;timestamp;temperature;humidity
3053;DHT22;1536;51.098;6.414;2023-02-21T00:00:04;9.70;99.90
3053;DHT22;1536;51.098;6.414;2023-02-21T00:02:48;9.70;99.90
3053;DHT22;1536;51.098;6.414;2023-02-21T00:05:32;9.70;99.90
3053;DHT22;1536;51.098;6.414;2023-02-21T00:08:18;9.80;99.90
3053;DHT22;1536;51.098;6.414;2023-02-21T00:11:02;9.80;99.90
3053;DHT22;1536;51.098;6.414;2023-02-21T00:13:46;9.80;99.90
3053;DHT22;1536;51.098;6.414;2023-02-21T00:16:30;9.80;99.90
3053;DHT22;1536;51.098;6.414;2023-02-21T00:19:15;9.80;99.90
3053;DHT22;1536;51.098;6.414;2023-02-21T00:21:59;9.80;99.90
3053;DHT22;1536;51.098;6.414;2023-02-21T00:24:45;9.80;99.90
3053;DHT22;1536;51.098;6.414;2023-02-21T00:27:29;9.80;99.90
3053;DHT22;1536;51.098;6.414;2023-02-21T00:30:13;9.80;99.90
3053;DHT22;1536;51.098;6.414;2023-02-21T00:32:58;9.80;99.90
3053;DHT22;1536;51.098;6.414;2023-02-21T00:35:42;9.80;99.90
3053;DHT22;1536;51.098;6.414;2023-02-21T00:38:26;9.70;99.90
3053;DHT22;1536;51.098;6.414;2023-02-21T00:41:12;9.70;99.90
3053;DHT22;1536;51.098;6.414;2023-02-21T00:43:56;9.70;99.90
3053;DHT22;1536;51.098;6.414;2023-02-21T00:46:40;9.70;99.90
3053;DHT22;1536;51.098;6.414;2023-02-21T00:49:24;9.70;99.90
3053;DHT22;1536;51.098;6.414;2023-02-21T00:52:08;9.70;99.90
3053;DHT22;1536;51.098;6.414;2023-02-21T00:54:52;9.70;99.90
3053;DHT22;1536;51.098;6.414;2023-02-21T00:57:38;9.70;99.90
3053;DHT22;1536;51.098;6.414;2023-02-21T01:00:23;9.70;99.90
3053;DHT22;1536;51.098;6.414;2023-02-21T01:03:08;9.70;99.90
3053;DHT22;1536;51.098;6.414;2023-02-21T01:05:53;9.70;99.90
3053;DHT22;1536;51.098;6.414;2023-02-21T01:08:40;9.80;99.90
3053;DHT22;1536;51.098;6.414;2023-02-21T01:11:25;9.80;99.90
3053;DHT22;1536;51.098;6.414;2023-02-21T01:14:11;9.80;99.90
3053;DHT22;1536;51.098;6.414;2023-02-21T01:16:56;9.80;99.90
3053;DHT22;1536;51.098;6.414;2023-02-21T01:19:41;9.80;99.90
3053;DHT22;1536;51.098;6.414;2023-02-21T01:22:25;9.80;99.90
3053;DHT22;1536;51.098;6.414;2023-02-21T01:25:09;9.80;99.90
3053;DHT22;1536;51.098;6.414;2023-02-21T01:27:53;9.80;99.90
3053;DHT22;1536;51.098;6.414;2023-02-21T01:30:39;9.80;99.90
3053;DHT22;1536;51.098;6.414;2023-02-21T01:33:23;9.80;99.90
3053;DHT22;1536;51.098;6.414;2023-02-21T01:36:08;9.80;99.90
3053;DHT22;1536;51.098;6.414;2023-02-21T01:38:52;9.80;99.90
3053;DHT22;1536;51.098;6.414;2023-02-21T01:41:36;9.80;99.90
3053;DHT22;1536;51.098;6.414;2023-02-21T01:44:31;9.80;99.90
3053;DHT22;1536;51.098;6.414;2023-02-21T01:47:17;9.80;99.90
3053;DHT22;1536;51.098;6.414;2023-02-21T01:50:06;9.80;99.90
3053;DHT22;1536;51.098;6.414;2023-02-21T01:52:51;9.80;99.90
3053;DHT22;1536;51.098;6.414;2023-02-21T01:55:37;9.80;99.90
3053;DHT22;1536;51.098;6.414;2023-02-21T01:58:24;9.80;99.90
3053;DHT22;1536;51.098;6.414;2023-02-21T02:01:11;9.80;99.90
3053;DHT22;1536;51.098;6.414;2023-02-21T02:03:58;9.80;99.90
3053;DHT22;1536;51.098;6.414;2023-02-21T02:06:43;9.80;99.90
3053;DHT22;1536;51.098;6.414;2023-02-21T02:09:28;9.80;99.90
3053;DHT22;1536;51.098;6.414;2023-02-21T02:12:21;9.80;99.90
3053;DHT22;1536;51.098;6.414;2023-02-21T02:17:56;9.80;99.90
3053;DHT22;1536;51.098;6.414;2023-02-21T02:21:12;9.80;99.90
3053;DHT22;1536;51.098;6.414;2023-02-21T02:24:05;9.80;99.90
3053;DHT22;1536;51.098;6.414;2023-02-21T02:29:50;9.80;99.90
3053;DHT22;1536;51.098;6.414;2023-02-21T02:32:31;9.80;99.90
3053;DHT22;1536;51.098;6.414;2023-02-21T02:35:08;9.70;99.90
3053;DHT22;1536;51.098;6.414;2023-02-21T02:37:39;9.70;99.90
3053;DHT22;1536;51.098;6.414;2023-02-21T02:40:19;9.70;99.90
3053;DHT22;1536;51.098;6.414;2023-02-21T02:43:01;9.70;99.90
3053;DHT22;1536;51.098;6.414;2023-02-21T02:45:33;9.70;99.90
3053;DHT22;1536;51.098;6.414;2023-02-21T02:48:10;9.70;99.90
3053;DHT22;1536;51.098;6.414;2023-02-21T02:50:40;9.70;99.90
3053;DHT22;1536;51.098;6.414;2023-02-21T02:53:10;9.70;99.90
3053;DHT22;1536;51.098;6.414;2023-02-21T02:55:40;9.70;99.90
3053;DHT22;1536;51.098;6.414;2023-02-21T02:58:10;9.70;99.90
3053;DHT22;1536;51.098;6.414;2023-02-21T03:00:39;9.70;99.90
3053;DHT22;1536;51.098;6.414;2023-02-21T03:06:18;9.70;99.90
3053;DHT22;1536;51.098;6.414;2023-02-21T03:08:52;9.70;99.90
3053;DHT22;1536;51.098;6.414;2023-02-21T03:11:23;9.60;99.90
3053;DHT22;1536;51.098;6.414;2023-02-21T03:13:53;9.60;99.90
3053;DHT22;1536;51.098;6.414;2023-02-21T03:16:25;9.60;99.90
3053;DHT22;1536;51.098;6.414;2023-02-21T03:18:57;9.60;99.90
3053;DHT22;1536;51.098;6.414;2023-02-21T03:21:29;9.70;99.90
3053;DHT22;1536;51.098;6.414;2023-02-21T03:24:00;9.60;99.90
3053;DHT22;1536;51.098;6.414;2023-02-21T03:26:31;9.60;99.90
3053;DHT22;1536;51.098;6.414;2023-02-21T03:28:58;9.60;99.90
3053;DHT22;1536;51.098;6.414;2023-02-21T03:31:29;9.70;99.90
3053;DHT22;1536;51.098;6.414;2023-02-21T03:33:58;9.60;99.90
3053;DHT22;1536;51.098;6.414;2023-02-21T03:36:25;9.60;99.90
3053;DHT22;1536;51.098;6.414;2023-02-21T03:38:53;9.70;99.90
3053;DHT22;1536;51.098;6.414;2023-02-21T03:41:20;9.70;99.90
3053;DHT22;1536;51.098;6.414;2023-02-21T03:43:47;9.60;99.90
3053;DHT22;1536;51.098;6.414;2023-02-21T03:46:14;9.60;99.90
3053;DHT22;1536;51.098;6.414;2023-02-21T03:48:40;9.60;99.90
3053;DHT22;1536;51.098;6.414;2023-02-21T03:51:07;9.60;99.90
3053;DHT22;1536;51.098;6.414;2023-02-21T03:53:34;9.60;99.90
3053;DHT22;1536;51.098;6.414;2023-02-21T03:56:02;9.60;99.90
3053;DHT22;1536;51.098;6.414;2023-02-21T03:58:29;9.70;99.90
3053;DHT22;1536;51.098;6.414;2023-02-21T04:00:56;9.70;99.90
3053;DHT22;1536;51.098;6.414;2023-02-21T04:03:23;9.70;99.90
3053;DHT22;1536;51.098;6.414;2023-02-21T04:05:50;9.70;99.90
3053;DHT22;1536;51.098;6.414;2023-02-21T04:08:16;9.70;99.90
3053;DHT22;1536;51.098;6.414;2023-02-21T04:10:43;9.70;99.90
3053;DHT22;1536;51.098;6.414;2023-02-21T04:13:11;9.70;99.90
3053;DHT22;1536;51.098;6.414;2023-02-21T04:15:38;9.70;99.90
3053;DHT22;1536;51.098;6.414;2023-02-21T04:18:05;9.70;99.90
3053;DHT22;1536;51.098;6.414;2023-02-21T04:20:31;9.80;99.90
3053;DHT22;1536;51.098;6.414;2023-02-21T04:22:58;9.80;99.90
3053;DHT22;1536;51.098;6.414;2023-02-21T04:25:25;9.80;99.90
3053;DHT22;1536;51.098;6.414;2023-02-21T04:27:52;9.90;99.90
3053;DHT22;1536;51.098;6.414;2023-02-21T04:30:20;9.90;99.90
3053;DHT22;1536;51.098;6.414;2023-02-21T04:32:47;9.90;99.90
3053;DHT22;1536;51.098;6.414;2023-02-21T04:35:13;9.90;99.90
3053;DHT22;1536;51.098;6.414;2023-02-21T04:37:40;9.80;99.90
3053;DHT22;1536;51.098;6.414;2023-02-21T04:40:09;9.80;99.90
3053;DHT22;1536;51.098;6.414;2023-02-21T04:42:36;9.80;99.90
3053;DHT22;1536;51.098;6.414;2023-02-21T04:45:03;9.80;99.90
3053;DHT22;1536;51.098;6.414;2023-02-21T04:47:31;9.80;99.90
3053;DHT22;1536;51.098;6.414;2023-02-21T04:49:58;9.80;99.90
3053;DHT22;1536;51.098;6.414;2023-02-21T04:52:24;9.80;99.90
3053;DHT22;1536;51.098;6.414;2023-02-21T04:54:51;9.80;99.90
3053;DHT22;1536;51.098;6.414;2023-02-21T04:57:18;9.80;99.90
3053;DHT22;1536;51.098;6.414;2023-02-21T04:59:45;9.80;99.90
3053;DHT22;1536;51.098;6.414;2023-02-21T05:02:11;9.80;99.90
3053;DHT22;1536;51.098;6.414;2023-02-21T05:04:39;9.80;99.90
3053;DHT22;1536;51.098;6.414;2023-02-21T05:07:07;9.70;99.90
3053;DHT22;1536;51.098;6.414;2023-02-21T05:09:34;9.70;99.90
3053;DHT22;1536;51.098;6.414;2023-02-21T05:12:00;9.70;99.90
3053;DHT22;1536;51.098;6.414;2023-02-21T05:14:27;9.80;99.90
3053;DHT22;1536;51.098;6.414;2023-02-21T05:16:54;9.70;99.90
3053;DHT22;1536;51.098;6.414;2023-02-21T05:19:21;9.80;99.90
3053;DHT22;1536;51.098;6.414;2023-02-21T05:21:55;9.80;99.90
3053;DHT22;1536;51.098;6.414;2023-02-21T05:24:22;9.80;99.90
3053;DHT22;1536;51.098;6.414;2023-02-21T05:26:50;9.80;99.90
3053;DHT22;1536;51.098;6.414;2023-02-21T05:29:17;9.80;99.90
3053;DHT22;1536;51.098;6.414;2023-02-21T05:31:44;9.80;99.90
3053;DHT22;1536;51.098;6.414;2023-02-21T05:34:11;9.80;99.90
3053;DHT22;1536;51.098;6.414;2023-02-21T05:36:39;9.80;99.90
3053;DHT22;1536;51.098;6.414;2023-02-21T05:39:07;9.80;99.90
3053;DHT22;1536;51.098;6.414;2023-02-21T05:41:34;9.80;99.90
3053;DHT22;1536;51.098;6.414;2023-02-21T05:44:01;9.80;99.90
3053;DHT22;1536;51.098;6.414;2023-02-21T05:46:30;9.80;99.90
3053;DHT22;1536;51.098;6.414;2023-02-21T05:48:59;9.70;99.90
3053;DHT22;1536;51.098;6.414;2023-02-21T05:51:26;9.80;99.90
3053;DHT22;1536;51.098;6.414;2023-02-21T05:53:53;9.80;99.90
3053;DHT22;1536;51.098;6.414;2023-02-21T05:56:21;9.80;99.90
3053;DHT22;1536;51.098;6.414;2023-02-21T05:58:47;9.80;99.90
3053;DHT22;1536;51.098;6.414;2023-02-21T06:01:14;9.80;99.90
3053;DHT22;1536;51.098;6.414;2023-02-21T06:03:41;9.70;99.90
3053;DHT22;1536;51.098;6.414;2023-02-21T06:06:08;9.70;99.90
3053;DHT22;1536;51.098;6.414;2023-02-21T06:08:42;9.80;99.90
3053;DHT22;1536;51.098;6.414;2023-02-21T06:11:08;9.80;99.90
3053;DHT22;1536;51.098;6.414;2023-02-21T06:13:37;9.80;99.90
3053;DHT22;1536;51.098;6.414;2023-02-21T06:16:04;9.80;99.90
3053;DHT22;1536;51.098;6.414;2023-02-21T06:18:31;9.80;99.90
3053;DHT22;1536;51.098;6.414;2023-02-21T06:20:57;9.80;99.90
3053;DHT22;1536;51.098;6.414;2023-02-21T06:23:24;9.80;99.90
3053;DHT22;1536;51.098;6.414;2023-02-21T06:25:51;9.80;99.90
3053;DHT22;1536;51.098;6.414;2023-02-21T06:28:17;9.80;99.90
3053;DHT22;1536;51.098;6.414;2023-02-21T06:30:46;9.80;99.90
3053;DHT22;1536;51.098;6.414;2023-02-21T06:33:12;9.70;99.90
3053;DHT22;1536;51.098;6.414;2023-02-21T06:35:39;9.70;99.90
3053;DHT22;1536;51.098;6.414;2023-02-21T06:38:06;9.70;99.90
3053;DHT22;1536;51.098;6.414;2023-02-21T06:40:32;9.70;99.90
3053;DHT22;1536;51.098;6.414;2023-02-21T06:42:59;9.70;99.90
3053;DHT22;1536;51.098;6.414;2023-02-21T06:45:26;9.70;99.90
3053;DHT22;1536;51.098;6.414;2023-02-21T06:47:54;9.70;99.90
3053;DHT22;1536;51.098;6.414;2023-02-21T06:50:21;9.80;99.90
3053;DHT22;1536;51.098;6.414;2023-02-21T06:52:47;9.80;99.90
3053;DHT22;1536;51.098;6.414;2023-02-21T06:55:18;9.80;99.90
3053;DHT22;1536;51.098;6.414;2023-02-21T06:57:45;9.70;99.90
3053;DHT22;1536;51.098;6.414;2023-02-21T07:00:13;9.70;99.90
3053;DHT22;1536;51.098;6.414;2023-02-21T07:02:40;9.70;99.90
3053;DHT22;1536;51.098;6.414;2023-02-21T07:05:09;9.70;99.90
3053;DHT22;1536;51.098;6.414;2023-02-21T07:07:36;9.70;99.90
3053;DHT22;1536;51.098;6.414;2023-02-21T07:10:04;9.80;99.90
3053;DHT22;1536;51.098;6.414;2023-02-21T07:12:30;9.80;99.90
3053;DHT22;1536;51.098;6.414;2023-02-21T07:14:57;9.80;99.90
3053;DHT22;1536;51.098;6.414;2023-02-21T07:17:24;9.80;99.90
3053;DHT22;1536;51.098;6.414;2023-02-21T07:19:51;9.70;99.90
3053;DHT22;1536;51.098;6.414;2023-02-21T07:22:19;9.70;99.90
3053;DHT22;1536;51.098;6.414;2023-02-21T07:24:50;9.80;99.90
3053;DHT22;1536;51.098;6.414;2023-02-21T07:27:17;9.80;99.90
3053;DHT22;1536;51.098;6.414;2023-02-21T07:29:45;9.80;99.90
3053;DHT22;1536;51.098;6.414;2023-02-21T07:32:12;9.80;99.90
3053;DHT22;1536;51.098;6.414;2023-02-21T07:34:39;9.70;99.90
3053;DHT22;1536;51.098;6.414;2023-02-21T07:37:06;9.80;99.90
3053;DHT22;1536;51.098;6.414;2023-02-21T07:39:34;9.80;99.90
3053;DHT22;1536;51.098;6.414;2023-02-21T07:42:01;9.80;99.90
3053;DHT22;1536;51.098;6.414;2023-02-21T07:44:27;9.80;99.90
3053;DHT22;1536;51.098;6.414;2023-02-21T07:46:55;9.90;99.90
3053;DHT22;1536;51.098;6.414;2023-02-21T07:49:21;9.90;99.90
3053;DHT22;1536;51.098;6.414;2023-02-21T07:51:48;9.90;99.90
3053;DHT22;1536;51.098;6.414;2023-02-21T07:54:15;9.90;99.90
3053;DHT22;1536;51.098;6.414;2023-02-21T07:56:44;9.80;99.90
3053;DHT22;1536;51.098;6.414;2023-02-21T07:59:11;9.80;99.90
3053;DHT22;1536;51.098;6.414;2023-02-21T08:01:38;9.80;99.90
3053;DHT22;1536;51.098;6.414;2023-02-21T08:04:04;9.80;99.90
3053;DHT22;1536;51.098;6.414;2023-02-21T08:06:33;9.80;99.90
3053;DHT22;1536;51.098;6.414;2023-02-21T08:09:00;9.80;99.90
3053;DHT22;1536;51.098;6.414;2023-02-21T08:11:27;9.80;99.90
3053;DHT22;1536;51.098;6.414;2023-02-21T08:13:55;9.80;99.90
3053;DHT22;1536;51.098;6.414;2023-02-21T08:16:22;9.80;99.90
3053;DHT22;1536;51.098;6.414;2023-02-21T08:18:49;9.80;99.90
3053;DHT22;1536;51.098;6.414;2023-02-21T08:21:16;9.80;99.90
3053;DHT22;1536;51.098;6.414;2023-02-21T08:23:43;9.90;99.90
3053;DHT22;1536;51.098;6.414;2023-02-21T08:26:10;9.90;99.90
3053;DHT22;1536;51.098;6.414;2023-02-21T08:28:37;9.90;99.90
3053;DHT22;1536;51.098;6.414;2023-02-21T08:31:05;10.00;99.90
3053;DHT22;1536;51.098;6.414;2023-02-21T08:33:32;9.90;99.90
3053;DHT22;1536;51.098;6.414;2023-02-21T08:35:59;9.90;99.90
3053;DHT22;1536;51.098;6.414;2023-02-21T08:38:26;9.90;99.90
3053;DHT22;1536;51.098;6.414;2023-02-21T08:40:52;9.90;99.90
3053;DHT22;1536;51.098;6.414;2023-02-21T08:43:19;10.00;99.90
3053;DHT22;1536;51.098;6.414;2023-02-21T08:45:46;10.00;99.90
3053;DHT22;1536;51.098;6.414;2023-02-21T08:48:14;9.90;99.90
3053;DHT22;1536;51.098;6.414;2023-02-21T08:50:41;9.90;99.90
3053;DHT22;1536;51.098;6.414;2023-02-21T08:53:08;10.00;99.90
3053;DHT22;1536;51.098;6.414;2023-02-21T08:55:36;10.00;99.90
3053;DHT22;1536;51.098;6.414;2023-02-21T08:58:03;10.10;99.90
3053;DHT22;1536;51.098;6.414;2023-02-21T09:00:31;10.00;99.90
3053;DHT22;1536;51.098;6.414;2023-02-21T09:02:58;10.10;99.90
3053;DHT22;1536;51.098;6.414;2023-02-21T09:05:28;10.10;99.90
3053;DHT22;1536;51.098;6.414;2023-02-21T09:07:56;10.10;99.90
3053;DHT22;1536;51.098;6.414;2023-02-21T09:10:26;10.10;99.90
3053;DHT22;1536;51.098;6.414;2023-02-21T09:12:53;10.10;99.90
3053;DHT22;1536;51.098;6.414;2023-02-21T09:15:20;10.10;99.90
3053;DHT22;1536;51.098;6.414;2023-02-21T09:17:46;10.10;99.90
3053;DHT22;1536;51.098;6.414;2023-02-21T09:20:17;10.10;99.90
3053;DHT22;1536;51.098;6.414;2023-02-21T09:22:45;10.10;99.90
3053;DHT22;1536;51.098;6.414;2023-02-21T09:25:14;10.10;99.90
3053;DHT22;1536;51.098;6.414;2023-02-21T09:27:41;10.10;99.90
3053;DHT22;1536;51.098;6.414;2023-02-21T09:30:11;10.10;99.90
3053;DHT22;1536;51.098;6.414;2023-02-21T09:32:39;10.10;99.90
3053;DHT22;1536;51.098;6.414;2023-02-21T09:35:07;10.10;99.90
3053;DHT22;1536;51.098;6.414;2023-02-21T09:37:37;10.10;99.90
3053;DHT22;1536;51.098;6.414;2023-02-21T09:40:09;10.10;99.90
3053;DHT22;1536;51.098;6.414;2023-02-21T09:42:38;10.20;99.90
3053;DHT22;1536;51.098;6.414;2023-02-21T09:45:08;10.20;99.90
3053;DHT22;1536;51.098;6.414;2023-02-21T09:47:37;10.20;99.90
3053;DHT22;1536;51.098;6.414;2023-02-21T09:50:07;10.20;99.90
3053;DHT22;1536;51.098;6.414;2023-02-21T09:52:38;10.30;99.90
3053;DHT22;1536;51.098;6.414;2023-02-21T09:55:11;10.30;99.90
3053;DHT22;1536;51.098;6.414;2023-02-21T09:57:38;10.40;99.90
3053;DHT22;1536;51.098;6.414;2023-02-21T10:00:15;10.40;99.90
3053;DHT22;1536;51.098;6.414;2023-02-21T10:02:51;10.40;99.90
3053;DHT22;1536;51.098;6.414;2023-02-21T10:05:26;10.40;99.90
3053;DHT22;1536;51.098;6.414;2023-02-21T10:07:59;10.40;99.90
3053;DHT22;1536;51.098;6.414;2023-02-21T10:10:31;10.40;99.90
3053;DHT22;1536;51.098;6.414;2023-02-21T10:13:06;10.40;99.90
3053;DHT22;1536;51.098;6.414;2023-02-21T10:15:43;10.40;99.90
3053;DHT22;1536;51.098;6.414;2023-02-21T10:18:30;10.30;99.90
3053;DHT22;1536;51.098;6.414;2023-02-21T10:21:00;10.40;99.90
3053;DHT22;1536;51.098;6.414;2023-02-21T10:23:35;10.40;99.90
3053;DHT22;1536;51.098;6.414;2023-02-21T10:26:08;10.40;99.90
3053;DHT22;1536;51.098;6.414;2023-02-21T10:28:36;10.40;99.90
3053;DHT22;1536;51.098;6.414;2023-02-21T10:31:06;10.50;99.90
3053;DHT22;1536;51.098;6.414;2023-02-21T10:33:37;10.50;99.90
3053;DHT22;1536;51.098;6.414;2023-02-21T10:36:10;10.50;99.90
3053;DHT22;1536;51.098;6.414;2023-02-21T10:38:38;10.50;99.90
3053;DHT22;1536;51.098;6.414;2023-02-21T10:41:07;10.50;99.90
3053;DHT22;1536;51.098;6.414;2023-02-21T10:43:37;10.50;99.90
3053;DHT22;1536;51.098;6.414;2023-02-21T10:46:09;10.60;99.90
3053;DHT22;1536;51.098;6.414;2023-02-21T10:48:40;10.60;99.90
3053;DHT22;1536;51.098;6.414;2023-02-21T10:51:09;10.60;99.90
3053;DHT22;1536;51.098;6.414;2023-02-21T10:53:37;10.60;99.90
3053;DHT22;1536;51.098;6.414;2023-02-21T10:56:26;10.70;99.90
3053;DHT22;1536;51.098;6.414;2023-02-21T10:58:55;10.70;99.90
3053;DHT22;1536;51.098;6.414;2023-02-21T11:01:32;10.70;99.90
3053;DHT22;1536;51.098;6.414;2023-02-21T11:04:01;10.70;99.90
3053;DHT22;1536;51.098;6.414;2023-02-21T11:06:32;10.80;99.90
3053;DHT22;1536;51.098;6.414;2023-02-21T11:09:00;10.80;99.90
3053;DHT22;1536;51.098;6.414;2023-02-21T11:11:37;10.80;99.90
3053;DHT22;1536;51.098;6.414;2023-02-21T11:14:18;10.80;99.90
3053;DHT22;1536;51.098;6.414;2023-02-21T11:17:08;10.90;99.90
3053;DHT22;1536;51.098;6.414;2023-02-21T11:19:46;10.90;99.90
3053;DHT22;1536;51.098;6.414;2023-02-21T11:22:14;10.80;99.90
3053;DHT22;1536;51.098;6.414;2023-02-21T11:24:56;10.80;99.90
3053;DHT22;1536;51.098;6.414;2023-02-21T11:27:26;10.90;99.90
3053;DHT22;1536;51.098;6.414;2023-02-21T11:29:54;10.90;99.90
3053;DHT22;1536;51.098;6.414;2023-02-21T11:32:27;10.90;99.90
3053;DHT22;1536;51.098;6.414;2023-02-21T11:35:07;10.90;99.90
3053;DHT22;1536;51.098;6.414;2023-02-21T11:37:49;11.00;99.90
3053;DHT22;1536;51.098;6.414;2023-02-21T11:40:30;11.00;99.90
3053;DHT22;1536;51.098;6.414;2023-02-21T11:43:11;11.00;99.90
3053;DHT22;1536;51.098;6.414;2023-02-21T11:45:43;11.00;99.90
3053;DHT22;1536;51.098;6.414;2023-02-21T11:48:12;11.10;99.90
3053;DHT22;1536;51.098;6.414;2023-02-21T11:50:43;11.10;99.90
3053;DHT22;1536;51.098;6.414;2023-02-21T11:53:19;11.10;99.90
3053;DHT22;1536;51.098;6.414;2023-02-21T11:55:54;11.10;99.90
3053;DHT22;1536;51.098;6.414;2023-02-21T11:58:28;11.10;99.90
3053;DHT22;1536;51.098;6.414;2023-02-21T12:01:01;11.10;99.90
3053;DHT22;1536;51.098;6.414;2023-02-21T12:03:44;11.10;99.90
3053;DHT22;1536;51.098;6.414;2023-02-21T12:06:20;11.10;99.90
3053;DHT22;1536;51.098;6.414;2023-02-21T12:08:55;11.10;99.90
3053;DHT22;1536;51.098;6.414;2023-02-21T12:11:44;11.10;99.90
3053;DHT22;1536;51.098;6.414;2023-02-21T12:14:35;11.10;99.90
3053;DHT22;1536;51.098;6.414;2023-02-21T12:17:14;11.10;99.90
3053;DHT22;1536;51.098;6.414;2023-02-21T12:19:57;11.10;99.90
3053;DHT22;1536;51.098;6.414;2023-02-21T12:22:40;11.10;99.90
3053;DHT22;1536;51.098;6.414;2023-02-21T12:25:18;11.20;99.90
3053;DHT22;1536;51.098;6.414;2023-02-21T12:27:53;11.20;99.90
3053;DHT22;1536;51.098;6.414;2023-02-21T12:30:44;11.20;99.90
3053;DHT22;1536;51.098;6.414;2023-02-21T12:33:23;11.20;99.90
3053;DHT22;1536;51.098;6.414;2023-02-21T12:36:04;11.10;99.90
3053;DHT22;1536;51.098;6.414;2023-02-21T12:38:43;11.10;99.90
3053;DHT22;1536;51.098;6.414;2023-02-21T12:41:22;11.10;99.90
3053;DHT22;1536;51.098;6.414;2023-02-21T12:43:55;11.10;99.90
3053;DHT22;1536;51.098;6.414;2023-02-21T12:46:30;11.00;99.90
3053;DHT22;1536;51.098;6.414;2023-02-21T12:49:02;11.10;99.90
3053;DHT22;1536;51.098;6.414;2023-02-21T12:51:34;11.10;99.90
3053;DHT22;1536;51.098;6.414;2023-02-21T12:54:05;11.10;99.90
3053;DHT22;1536;51.098;6.414;2023-02-21T12:56:36;11.10;99.90
3053;DHT22;1536;51.098;6.414;2023-02-21T12:59:10;11.10;99.90
3053;DHT22;1536;51.098;6.414;2023-02-21T13:01:42;11.10;99.90
3053;DHT22;1536;51.098;6.414;2023-02-21T13:04:18;11.20;99.90
3053;DHT22;1536;51.098;6.414;2023-02-21T13:06:51;11.20;99.90
3053;DHT22;1536;51.098;6.414;2023-02-21T13:09:24;11.30;99.90
3053;DHT22;1536;51.098;6.414;2023-02-21T13:11:59;11.30;99.90
3053;DHT22;1536;51.098;6.414;2023-02-21T13:14:32;11.30;99.90
3053;DHT22;1536;51.098;6.414;2023-02-21T13:17:00;11.40;99.90
3053;DHT22;1536;51.098;6.414;2023-02-21T13:19:33;11.40;99.90
3053;DHT22;1536;51.098;6.414;2023-02-21T13:25:20;11.40;99.90
3053;DHT22;1536;51.098;6.414;2023-02-21T13:27:56;11.40;99.90
3053;DHT22;1536;51.098;6.414;2023-02-21T13:30:35;11.30;99.90
3053;DHT22;1536;51.098;6.414;2023-02-21T13:33:19;11.30;99.90
3053;DHT22;1536;51.098;6.414;2023-02-21T13:35:56;11.30;99.90
3053;DHT22;1536;51.098;6.414;2023-02-21T13:38:27;11.20;99.90
3053;DHT22;1536;51.098;6.414;2023-02-21T13:41:04;11.20;99.90
3053;DHT22;1536;51.098;6.414;2023-02-21T13:43:34;11.20;99.90
3053;DHT22;1536;51.098;6.414;2023-02-21T13:55:25;11.30;99.90
3053;DHT22;1536;51.098;6.414;2023-02-21T13:58:30;11.20;99.90
3053;DHT22;1536;51.098;6.414;2023-02-21T14:01:13;11.30;99.90
3053;DHT22;1536;51.098;6.414;2023-02-21T14:03:41;11.30;99.90
3053;DHT22;1536;51.098;6.414;2023-02-21T14:06:34;11.30;99.90
3053;DHT22;1536;51.098;6.414;2023-02-21T14:09:06;11.30;99.90
3053;DHT22;1536;51.098;6.414;2023-02-21T14:11:37;11.40;99.90
3053;DHT22;1536;51.098;6.414;2023-02-21T14:14:19;11.40;99.90
3053;DHT22;1536;51.098;6.414;2023-02-21T14:16:48;11.40;99.90
3053;DHT22;1536;51.098;6.414;2023-02-21T14:19:19;11.40;99.90
3053;DHT22;1536;51.098;6.414;2023-02-21T14:21:50;11.50;99.90
3053;DHT22;1536;51.098;6.414;2023-02-21T14:24:20;11.50;99.90
3053;DHT22;1536;51.098;6.414;2023-02-21T14:26:49;11.50;99.90
3053;DHT22;1536;51.098;6.414;2023-02-21T14:29:34;11.50;99.90
3053;DHT22;1536;51.098;6.414;2023-02-21T14:32:31;11.50;99.90
3053;DHT22;1536;51.098;6.414;2023-02-21T14:35:08;11.50;99.90
3053;DHT22;1536;51.098;6.414;2023-02-21T14:37:41;11.50;99.90
3053;DHT22;1536;51.098;6.414;2023-02-21T14:40:21;11.50;99.90
3053;DHT22;1536;51.098;6.414;2023-02-21T14:43:02;11.50;99.90
3053;DHT22;1536;51.098;6.414;2023-02-21T14:45:44;11.50;99.90
3053;DHT22;1536;51.098;6.414;2023-02-21T14:48:23;11.50;99.90
3053;DHT22;1536;51.098;6.414;2023-02-21T14:51:22;11.50;99.90
3053;DHT22;1536;51.098;6.414;2023-02-21T14:54:13;11.50;99.90
3053;DHT22;1536;51.098;6.414;2023-02-21T14:57:03;11.50;99.90
3053;DHT22;1536;51.098;6.414;2023-02-21T14:59:59;11.50;99.90
3053;DHT22;1536;51.098;6.414;2023-02-21T15:02:37;11.40;99.90
3053;DHT22;1536;51.098;6.414;2023-02-21T15:05:11;11.40;99.90
3053;DHT22;1536;51.098;6.414;2023-02-21T15:07:56;11.40;99.90
3053;DHT22;1536;51.098;6.414;2023-02-21T15:10:26;11.40;99.90
3053;DHT22;1536;51.098;6.414;2023-02-21T15:12:56;11.40;99.90
3053;DHT22;1536;51.098;6.414;2023-02-21T15:15:26;11.40;99.90
3053;DHT22;1536;51.098;6.414;2023-02-21T15:18:03;11.40;99.90
3053;DHT22;1536;51.098;6.414;2023-02-21T15:20:32;11.50;99.90
3053;DHT22;1536;51.098;6.414;2023-02-21T15:23:01;11.50;99.90
3053;DHT22;1536;51.098;6.414;2023-02-21T15:25:29;11.40;99.90
3053;DHT22;1536;51.098;6.414;2023-02-21T15:28:04;11.50;99.90
3053;DHT22;1536;51.098;6.414;2023-02-21T15:30:36;11.50;99.90
3053;DHT22;1536;51.098;6.414;2023-02-21T15:33:12;11.50;99.90
3053;DHT22;1536;51.098;6.414;2023-02-21T15:35:42;11.50;99.90
3053;DHT22;1536;51.098;6.414;2023-02-21T15:38:15;11.50;99.90
3053;DHT22;1536;51.098;6.414;2023-02-21T15:40:43;11.50;99.90
3053;DHT22;1536;51.098;6.414;2023-02-21T15:43:26;11.50;99.90
3053;DHT22;1536;51.098;6.414;2023-02-21T15:45:55;11.50;99.90
3053;DHT22;1536;51.098;6.414;2023-02-21T15:48:23;11.50;99.90
3053;DHT22;1536;51.098;6.414;2023-02-21T15:50:50;11.50;99.90
3053;DHT22;1536;51.098;6.414;2023-02-21T15:53:19;11.40;99.90
3053;DHT22;1536;51.098;6.414;2023-02-21T15:55:47;11.40;99.90
3053;DHT22;1536;51.098;6.414;2023-02-21T15:58:19;11.40;99.90
3053;DHT22;1536;51.098;6.414;2023-02-21T16:00:47;11.40;99.90
3053;DHT22;1536;51.098;6.414;2023-02-21T16:03:29;11.40;99.90
3053;DHT22;1536;51.098;6.414;2023-02-21T16:06:16;11.40;99.90
3053;DHT22;1536;51.098;6.414;2023-02-21T16:08:59;11.40;99.90
3053;DHT22;1536;51.098;6.414;2023-02-21T16:11:39;11.30;99.90
3053;DHT22;1536;51.098;6.414;2023-02-21T16:14:16;11.30;99.90
3053;DHT22;1536;51.098;6.414;2023-02-21T16:16:45;11.30;99.90
3053;DHT22;1536;51.098;6.414;2023-02-21T16:19:12;11.30;99.90
3053;DHT22;1536;51.098;6.414;2023-02-21T16:21:39;11.20;99.90
3053;DHT22;1536;51.098;6.414;2023-02-21T16:27:05;11.20;99.90
3053;DHT22;1536;51.098;6.414;2023-02-21T16:29:35;11.20;99.90
3053;DHT22;1536;51.098;6.414;2023-02-21T16:32:02;11.10;99.90
3053;DHT22;1536;51.098;6.414;2023-02-21T16:34:31;11.10;99.90
3053;DHT22;1536;51.098;6.414;2023-02-21T16:37:05;11.10;99.90
3053;DHT22;1536;51.098;6.414;2023-02-21T16:39:34;11.00;99.90
3053;DHT22;1536;51.098;6.414;2023-02-21T16:42:01;11.00;99.90
3053;DHT22;1536;51.098;6.414;2023-02-21T16:44:28;11.00;99.90
3053;DHT22;1536;51.098;6.414;2023-02-21T16:46:56;11.00;99.90
3053;DHT22;1536;51.098;6.414;2023-02-21T16:49:23;10.90;99.90
3053;DHT22;1536;51.098;6.414;2023-02-21T16:51:49;10.90;99.90
3053;DHT22;1536;51.098;6.414;2023-02-21T16:54:18;10.90;99.90
3053;DHT22;1536;51.098;6.414;2023-02-21T16:56:47;10.90;99.90
3053;DHT22;1536;51.098;6.414;2023-02-21T16:59:17;10.90;99.90
3053;DHT22;1536;51.098;6.414;2023-02-21T17:01:45;10.80;99.90
3053;DHT22;1536;51.098;6.414;2023-02-21T17:04:17;10.80;99.90
3053;DHT22;1536;51.098;6.414;2023-02-21T17:06:46;10.80;99.90
3053;DHT22;1536;51.098;6.414;2023-02-21T17:09:19;10.80;99.90
3053;DHT22;1536;51.098;6.414;2023-02-21T17:11:46;10.80;99.90